Pagina principale
METAR-TAF:

METAR-TAF

Aeroporti :

Aeroporto di Bordeaux Mérignac

Bordeaux, Francia

latitudine: 44-50N, longitudine: 000-42W, altezza: 49 m

Osservazione

Il bollettino è stato emesso 19 minuti fa, alle 23:30 UTC
Vento 2 kt da direzioni variabili
Temperature 16°C
Umidità 77%
Pressione 1019 hPa
Visibilità 10 km o più
nessuna nube inferiore a 1500 m e nessun cumulonembo

METAR: LFBD 162330Z AUTO VRB02KT CAVOK 16/12 Q1019 NOSIG

Ora: 01:49 (23:49 UTC)

Previsione

Il bollettino è stato emesso 6 ore e 49 minuti fa, alle 17:00 UTC
Previsione valida dal 16 alle 18 UTC al 17 alle 24 UTC
Vento 6 kt da nord-est
Visibilità 10 km o più
nessuna nube inferiore a 1500 m e nessun cumulonembo

TAF: LFBD 161700Z 1618/1724 05006KT CAVOK TX30/1714Z TN15/1705Z

Osservazioni e previsioni meteorologiche di più di 4000 aeroporti (messaggi METAR e TAF).

Le stazioni disponibili sono rappresentate dai dischi gialli e rossi sulla carta.

Puntare il mouse per vedere il nome della stazione.

Clicca sopra per visualizzare le osservazioni e previsioni meteorologiche.

Per cambiare la mappa : fare clic sui pulsanti verdi con una croce nera per ingrandire, il pulsante verde con un trattino per diminuire, o sulla freccia verde per le mappe adiacenti.


METAR-TAF: